TGW242 WSSS-WADD
Flight info
| Callsign | TGW242 |
|---|---|
| Flight time | N/A |
| Altitude | 37000 |
| Route | IDBUD1A IDBUD T24 SURGA M635 UDONO |
| Aircraft | A21N/M-SDE2FGHIJ3J7RWYZ/LB1D1 |
Departure
| Time | N/A |
|---|---|
| Airport | Singapore Changi Airport (WSSS) |
Arrival
| Time | 2026-04-29 04:48 |
|---|---|
| Airport | Denpasar I Gusti Ngurah Rai International Airport (WADD) |
| Time | Latitude | Longitude | Altitude | Speed | Heading |
|---|---|---|---|---|---|
| 2026-04-29 03:47 | -5.30934 | 112.12384 | 36881 ft | 438 kts | 127° |
| 2026-04-29 03:47 | -5.32773 | 112.14768 | 36878 ft | 438 kts | 127° |
| 2026-04-29 03:47 | -5.36506 | 112.19604 | 36879 ft | 438 kts | 126° |
| 2026-04-29 03:48 | -5.40240 | 112.24440 | 36883 ft | 438 kts | 127° |
| 2026-04-29 03:48 | -5.43972 | 112.29272 | 36888 ft | 438 kts | 127° |
| 2026-04-29 03:49 | -5.47702 | 112.34105 | 36890 ft | 438 kts | 127° |
| 2026-04-29 03:49 | -5.51430 | 112.38940 | 36890 ft | 438 kts | 127° |
| 2026-04-29 03:50 | -5.55154 | 112.43772 | 36889 ft | 438 kts | 127° |
| 2026-04-29 03:50 | -5.58888 | 112.48610 | 36889 ft | 438 kts | 127° |
| 2026-04-29 03:51 | -5.62615 | 112.53444 | 36891 ft | 438 kts | 127° |
| 2026-04-29 03:51 | -5.66342 | 112.58283 | 36890 ft | 438 kts | 127° |
| 2026-04-29 03:52 | -5.70072 | 112.63124 | 36892 ft | 438 kts | 127° |
| 2026-04-29 03:52 | -5.73793 | 112.67953 | 36894 ft | 437 kts | 126° |
| 2026-04-29 03:53 | -5.77515 | 112.72787 | 36898 ft | 437 kts | 126° |
| 2026-04-29 03:53 | -5.81238 | 112.77622 | 36889 ft | 437 kts | 126° |
| 2026-04-29 03:54 | -5.84957 | 112.82455 | 36899 ft | 438 kts | 126° |
| 2026-04-29 03:54 | -5.88684 | 112.87292 | 36899 ft | 438 kts | 126° |
| 2026-04-29 03:55 | -5.92404 | 112.92128 | 36902 ft | 437 kts | 126° |
| 2026-04-29 03:55 | -5.96118 | 112.96958 | 36897 ft | 437 kts | 126° |
| 2026-04-29 03:56 | -5.99830 | 113.01784 | 36890 ft | 437 kts | 126° |
| 2026-04-29 03:56 | -6.03547 | 113.06621 | 36906 ft | 438 kts | 126° |
| 2026-04-29 03:57 | -6.07275 | 113.11472 | 36901 ft | 439 kts | 126° |
| 2026-04-29 03:57 | -6.11003 | 113.16320 | 36897 ft | 438 kts | 126° |
| 2026-04-29 03:58 | -6.14730 | 113.21172 | 36898 ft | 438 kts | 126° |
| 2026-04-29 03:58 | -6.18432 | 113.25993 | 36900 ft | 439 kts | 126° |
| 2026-04-29 03:59 | -6.22157 | 113.30843 | 36905 ft | 437 kts | 126° |
| 2026-04-29 03:59 | -6.26186 | 113.35417 | 36894 ft | 441 kts | 139° |
| 2026-04-29 04:00 | -6.31152 | 113.39067 | 36887 ft | 442 kts | 143° |
| 2026-04-29 04:00 | -6.36162 | 113.42636 | 36878 ft | 442 kts | 142° |
| 2026-04-29 04:01 | -6.41157 | 113.46232 | 36880 ft | 442 kts | 142° |
| 2026-04-29 04:01 | -6.46152 | 113.49839 | 36880 ft | 442 kts | 142° |
| 2026-04-29 04:02 | -6.51142 | 113.53442 | 36881 ft | 442 kts | 142° |
| 2026-04-29 04:02 | -6.56130 | 113.57046 | 36882 ft | 442 kts | 142° |
| 2026-04-29 04:03 | -6.61123 | 113.60650 | 36881 ft | 442 kts | 142° |
| 2026-04-29 04:03 | -6.65279 | 113.63655 | 36881 ft | 443 kts | 142° |
| 2026-04-29 04:04 | -6.71129 | 113.67880 | 36882 ft | 443 kts | 142° |
| 2026-04-29 04:04 | -6.75288 | 113.70890 | 36880 ft | 443 kts | 142° |
| 2026-04-29 04:05 | -6.80292 | 113.74510 | 36879 ft | 443 kts | 142° |
| 2026-04-29 04:05 | -6.85304 | 113.78136 | 36878 ft | 444 kts | 142° |
| 2026-04-29 04:06 | -6.90321 | 113.81765 | 36881 ft | 445 kts | 142° |
| 2026-04-29 04:06 | -6.95343 | 113.85397 | 36883 ft | 445 kts | 142° |
| 2026-04-29 04:07 | -7.00309 | 113.89105 | 36874 ft | 443 kts | 136° |
| 2026-04-29 04:07 | -7.04479 | 113.93614 | 36557 ft | 440 kts | 129° |
| 2026-04-29 04:08 | -7.06504 | 113.95948 | 35609 ft | 445 kts | 129° |
| 2026-04-29 04:08 | -7.08543 | 113.98295 | 34852 ft | 447 kts | 130° |
| 2026-04-29 04:08 | -7.10599 | 114.00647 | 34142 ft | 448 kts | 130° |
| 2026-04-29 04:08 | -7.12664 | 114.03000 | 33403 ft | 449 kts | 130° |
| 2026-04-29 04:09 | -7.14735 | 114.05362 | 32673 ft | 450 kts | 130° |
| 2026-04-29 04:09 | -7.16806 | 114.07723 | 31978 ft | 449 kts | 130° |
| 2026-04-29 04:09 | -7.18873 | 114.10077 | 31326 ft | 450 kts | 131° |
| 2026-04-29 04:09 | -7.21203 | 114.12168 | 30766 ft | 451 kts | 146° |
| 2026-04-29 04:10 | -7.23963 | 114.13663 | 30243 ft | 449 kts | 153° |
| 2026-04-29 04:10 | -7.26778 | 114.15002 | 29734 ft | 445 kts | 154° |
| 2026-04-29 04:10 | -7.29569 | 114.16336 | 29237 ft | 442 kts | 153° |
| 2026-04-29 04:10 | -7.32327 | 114.17678 | 28766 ft | 439 kts | 153° |
| 2026-04-29 04:11 | -7.35057 | 114.19022 | 28308 ft | 435 kts | 153° |
| 2026-04-29 04:11 | -7.37733 | 114.20349 | 27866 ft | 432 kts | 153° |
| 2026-04-29 04:11 | -7.40420 | 114.21681 | 27440 ft | 429 kts | 153° |
| 2026-04-29 04:11 | -7.43090 | 114.23003 | 27016 ft | 426 kts | 153° |
| 2026-04-29 04:12 | -7.45740 | 114.24320 | 26590 ft | 423 kts | 153° |
| 2026-04-29 04:12 | -7.48373 | 114.25625 | 26164 ft | 421 kts | 153° |
| 2026-04-29 04:12 | -7.50992 | 114.26923 | 25739 ft | 418 kts | 153° |
| 2026-04-29 04:12 | -7.53585 | 114.28212 | 25313 ft | 414 kts | 153° |
| 2026-04-29 04:13 | -7.56158 | 114.29492 | 24881 ft | 411 kts | 153° |
| 2026-04-29 04:13 | -7.58717 | 114.30763 | 24457 ft | 409 kts | 153° |
| 2026-04-29 04:13 | -7.61260 | 114.32026 | 24028 ft | 405 kts | 153° |
| 2026-04-29 04:13 | -7.63784 | 114.33278 | 23603 ft | 403 kts | 153° |
| 2026-04-29 04:14 | -7.66289 | 114.34523 | 23181 ft | 401 kts | 153° |
| 2026-04-29 04:14 | -7.68783 | 114.35762 | 22746 ft | 398 kts | 153° |
| 2026-04-29 04:14 | -7.71266 | 114.36984 | 22342 ft | 396 kts | 154° |
| 2026-04-29 04:14 | -7.73784 | 114.38100 | 21968 ft | 394 kts | 156° |
| 2026-04-29 04:15 | -7.76294 | 114.39188 | 21611 ft | 392 kts | 156° |
| 2026-04-29 04:15 | -7.78790 | 114.40269 | 21264 ft | 390 kts | 156° |
| 2026-04-29 04:15 | -7.81273 | 114.41346 | 20911 ft | 388 kts | 156° |
| 2026-04-29 04:15 | -7.83745 | 114.42419 | 20559 ft | 385 kts | 156° |
| 2026-04-29 04:16 | -7.86205 | 114.43485 | 20205 ft | 384 kts | 156° |
| 2026-04-29 04:16 | -7.88655 | 114.44551 | 19853 ft | 382 kts | 156° |
| 2026-04-29 04:16 | -7.91088 | 114.45610 | 19506 ft | 380 kts | 156° |
| 2026-04-29 04:16 | -7.93512 | 114.46664 | 19156 ft | 378 kts | 156° |
| 2026-04-29 04:17 | -7.95926 | 114.47711 | 18790 ft | 376 kts | 156° |
| 2026-04-29 04:17 | -7.98321 | 114.48752 | 18358 ft | 374 kts | 156° |
| 2026-04-29 04:17 | -8.00708 | 114.49790 | 17891 ft | 373 kts | 156° |
| 2026-04-29 04:17 | -8.03085 | 114.50824 | 17415 ft | 371 kts | 156° |
| 2026-04-29 04:18 | -8.05449 | 114.51851 | 16932 ft | 369 kts | 156° |
| 2026-04-29 04:18 | -8.07808 | 114.52877 | 16445 ft | 369 kts | 156° |
| 2026-04-29 04:18 | -8.10167 | 114.53903 | 15962 ft | 369 kts | 156° |
| 2026-04-29 04:18 | -8.12527 | 114.54931 | 15479 ft | 370 kts | 155° |
| 2026-04-29 04:19 | -8.14887 | 114.55958 | 15021 ft | 369 kts | 155° |
| 2026-04-29 04:19 | -8.17236 | 114.56978 | 14551 ft | 368 kts | 155° |
| 2026-04-29 04:19 | -8.19591 | 114.58000 | 14053 ft | 369 kts | 155° |
| 2026-04-29 04:19 | -8.21945 | 114.59026 | 13559 ft | 366 kts | 155° |
| 2026-04-29 04:20 | -8.24263 | 114.60037 | 13080 ft | 359 kts | 155° |
| 2026-04-29 04:20 | -8.26535 | 114.61026 | 12662 ft | 351 kts | 155° |
| 2026-04-29 04:20 | -8.28754 | 114.61990 | 12255 ft | 344 kts | 155° |
| 2026-04-29 04:20 | -8.30934 | 114.62937 | 11802 ft | 341 kts | 155° |
| 2026-04-29 04:21 | -8.33112 | 114.63882 | 11354 ft | 341 kts | 155° |
| 2026-04-29 04:21 | -8.35294 | 114.64830 | 10915 ft | 340 kts | 155° |
| 2026-04-29 04:21 | -8.37433 | 114.65760 | 10625 ft | 329 kts | 155° |
| 2026-04-29 04:21 | -8.39490 | 114.66654 | 10405 ft | 314 kts | 155° |
| 2026-04-29 04:22 | -8.41453 | 114.67507 | 10186 ft | 301 kts | 155° |
| 2026-04-29 04:22 | -8.43356 | 114.68334 | 9787 ft | 295 kts | 155° |
| 2026-04-29 04:22 | -8.45227 | 114.69148 | 9356 ft | 290 kts | 155° |
| 2026-04-29 04:22 | -8.47076 | 114.69956 | 8950 ft | 289 kts | 155° |
| 2026-04-29 04:23 | -8.48922 | 114.70765 | 8588 ft | 289 kts | 155° |
| 2026-04-29 04:23 | -8.50743 | 114.71560 | 8235 ft | 289 kts | 155° |
| 2026-04-29 04:23 | -8.52582 | 114.72362 | 7890 ft | 287 kts | 155° |
| 2026-04-29 04:23 | -8.54411 | 114.73166 | 7555 ft | 287 kts | 153° |
| 2026-04-29 04:24 | -8.56084 | 114.74220 | 7220 ft | 282 kts | 139° |
| 2026-04-29 04:24 | -8.57570 | 114.75500 | 6899 ft | 280 kts | 137° |
| 2026-04-29 04:24 | -8.59031 | 114.76788 | 6574 ft | 278 kts | 137° |
| 2026-04-29 04:24 | -8.60481 | 114.78064 | 6253 ft | 275 kts | 137° |
| 2026-04-29 04:25 | -8.61920 | 114.79320 | 5932 ft | 273 kts | 137° |
| 2026-04-29 04:25 | -8.63362 | 114.80573 | 5607 ft | 272 kts | 137° |
| 2026-04-29 04:25 | -8.64802 | 114.81827 | 5272 ft | 273 kts | 137° |
| 2026-04-29 04:25 | -8.66237 | 114.83072 | 4927 ft | 272 kts | 137° |
| 2026-04-29 04:26 | -8.67672 | 114.84314 | 4576 ft | 271 kts | 137° |
| 2026-04-29 04:26 | -8.69104 | 114.85553 | 4226 ft | 270 kts | 137° |
| 2026-04-29 04:26 | -8.70509 | 114.86771 | 3902 ft | 262 kts | 137° |
| 2026-04-29 04:26 | -8.71857 | 114.87938 | 3654 ft | 249 kts | 137° |
| 2026-04-29 04:27 | -8.73147 | 114.89054 | 3408 ft | 239 kts | 137° |
| 2026-04-29 04:27 | -8.74375 | 114.90123 | 3169 ft | 225 kts | 134° |
| 2026-04-29 04:27 | -8.75299 | 114.91310 | 2937 ft | 207 kts | 112° |
| 2026-04-29 04:27 | -8.75589 | 114.92667 | 2709 ft | 194 kts | 90° |
| 2026-04-29 04:28 | -8.75560 | 114.93998 | 2675 ft | 179 kts | 88° |
| 2026-04-29 04:28 | -8.75529 | 114.95181 | 2663 ft | 158 kts | 88° |
| 2026-04-29 04:28 | -8.75515 | 114.96240 | 2645 ft | 148 kts | 88° |
| 2026-04-29 04:28 | -8.75502 | 114.97282 | 2664 ft | 148 kts | 88° |
| 2026-04-29 04:29 | -8.75464 | 114.98322 | 2659 ft | 148 kts | 88° |
| 2026-04-29 04:29 | -8.75424 | 114.99359 | 2660 ft | 147 kts | 87° |
| 2026-04-29 04:29 | -8.75386 | 115.00399 | 2613 ft | 148 kts | 87° |
| 2026-04-29 04:29 | -8.75348 | 115.01442 | 2481 ft | 149 kts | 88° |
| 2026-04-29 04:30 | -8.75309 | 115.02487 | 2312 ft | 148 kts | 88° |
| 2026-04-29 04:30 | -8.75267 | 115.03519 | 2163 ft | 142 kts | 89° |
| 2026-04-29 04:30 | -8.75197 | 115.05437 | 1847 ft | 135 kts | 89° |
| 2026-04-29 04:31 | -8.75161 | 115.06386 | 1768 ft | 135 kts | 89° |
| 2026-04-29 04:31 | -8.75124 | 115.07337 | 1733 ft | 136 kts | 91° |
| 2026-04-29 04:31 | -8.75097 | 115.08291 | 1521 ft | 136 kts | 90° |
| 2026-04-29 04:31 | -8.75070 | 115.09237 | 1285 ft | 135 kts | 90° |
| 2026-04-29 04:32 | -8.75051 | 115.10181 | 1070 ft | 135 kts | 91° |
| 2026-04-29 04:32 | -8.75015 | 115.11121 | 969 ft | 134 kts | 90° |
| 2026-04-29 04:32 | -8.74983 | 115.12059 | 767 ft | 133 kts | 90° |
| 2026-04-29 04:32 | -8.74957 | 115.12998 | 551 ft | 134 kts | 90° |
| 2026-04-29 04:33 | -8.74942 | 115.13943 | 361 ft | 135 kts | 90° |
| 2026-04-29 04:33 | -8.74918 | 115.14895 | 176 ft | 136 kts | 89° |
| 2026-04-29 04:33 | -8.74873 | 115.15962 | 331 ft | 181 kts | 88° |
| 2026-04-29 04:33 | -8.74796 | 115.17231 | 997 ft | 181 kts | 88° |
| 2026-04-29 04:34 | -8.74751 | 115.18537 | 1615 ft | 192 kts | 91° |
| 2026-04-29 04:34 | -8.74726 | 115.19918 | 2205 ft | 208 kts | 90° |
| 2026-04-29 04:34 | -8.75059 | 115.21340 | 2764 ft | 215 kts | 121° |
| 2026-04-29 04:34 | -8.76187 | 115.22332 | 3038 ft | 223 kts | 156° |
| 2026-04-29 04:35 | -8.77740 | 115.22460 | 3122 ft | 232 kts | 192° |
| 2026-04-29 04:35 | -8.79117 | 115.21617 | 3149 ft | 238 kts | 229° |
| 2026-04-29 04:35 | -8.79770 | 115.20099 | 3167 ft | 241 kts | 266° |
| 2026-04-29 04:35 | -8.79452 | 115.18463 | 3183 ft | 238 kts | 297° |
| 2026-04-29 04:36 | -8.78563 | 115.17062 | 3188 ft | 236 kts | 313° |
| 2026-04-29 04:36 | -8.77472 | 115.15821 | 3182 ft | 237 kts | 307° |
| 2026-04-29 04:36 | -8.76867 | 115.14280 | 3177 ft | 239 kts | 278° |
| 2026-04-29 04:36 | -8.76727 | 115.12603 | 3186 ft | 241 kts | 273° |
| 2026-04-29 04:37 | -8.76637 | 115.10924 | 3181 ft | 238 kts | 273° |
| 2026-04-29 04:37 | -8.76551 | 115.09252 | 3178 ft | 239 kts | 274° |
| 2026-04-29 04:37 | -8.76461 | 115.07569 | 3177 ft | 239 kts | 274° |
| 2026-04-29 04:37 | -8.76365 | 115.05891 | 3173 ft | 239 kts | 274° |
| 2026-04-29 04:38 | -8.76266 | 115.04205 | 3182 ft | 240 kts | 274° |
| 2026-04-29 04:38 | -8.76167 | 115.02526 | 3181 ft | 239 kts | 274° |
| 2026-04-29 04:38 | -8.76070 | 115.00848 | 3174 ft | 238 kts | 274° |
| 2026-04-29 04:38 | -8.75970 | 114.99172 | 3177 ft | 239 kts | 274° |
| 2026-04-29 04:39 | -8.75869 | 114.97494 | 3176 ft | 239 kts | 274° |
| 2026-04-29 04:39 | -8.75769 | 114.95819 | 3175 ft | 240 kts | 274° |
| 2026-04-29 04:39 | -8.75670 | 114.94138 | 3173 ft | 239 kts | 274° |
| 2026-04-29 04:39 | -8.75569 | 114.92462 | 3174 ft | 239 kts | 274° |
| 2026-04-29 04:40 | -8.75468 | 114.90788 | 3176 ft | 239 kts | 275° |
| 2026-04-29 04:40 | -8.74974 | 114.89219 | 3167 ft | 236 kts | 308° |
| 2026-04-29 04:40 | -8.73777 | 114.88135 | 3178 ft | 231 kts | 334° |
| 2026-04-29 04:40 | -8.72279 | 114.87620 | 3160 ft | 227 kts | 355° |
| 2026-04-29 04:41 | -8.70731 | 114.87712 | 3051 ft | 221 kts | 19° |
| 2026-04-29 04:41 | -8.69402 | 114.88382 | 2872 ft | 208 kts | 41° |
| 2026-04-29 04:41 | -8.68477 | 114.89423 | 2695 ft | 195 kts | 60° |
| 2026-04-29 04:41 | -8.67975 | 114.90676 | 2582 ft | 193 kts | 79° |
| 2026-04-29 04:42 | -8.67853 | 114.92023 | 2578 ft | 193 kts | 85° |
| 2026-04-29 04:42 | -8.67917 | 114.93362 | 2580 ft | 193 kts | 105° |
| 2026-04-29 04:42 | -8.68600 | 114.94525 | 2590 ft | 197 kts | 134° |
| 2026-04-29 04:42 | -8.69712 | 114.95349 | 2600 ft | 199 kts | 144° |
| 2026-04-29 04:43 | -8.70872 | 114.96108 | 2600 ft | 199 kts | 143° |
| 2026-04-29 04:43 | -8.72020 | 114.96892 | 2601 ft | 200 kts | 143° |
| 2026-04-29 04:43 | -8.73156 | 114.97683 | 2599 ft | 199 kts | 142° |
| 2026-04-29 04:43 | -8.74284 | 114.98485 | 2596 ft | 199 kts | 141° |
| 2026-04-29 04:44 | -8.75244 | 114.99454 | 2524 ft | 188 kts | 117° |
| 2026-04-29 04:44 | -8.75527 | 115.00632 | 2487 ft | 164 kts | 90° |
| 2026-04-29 04:44 | -8.75454 | 115.01722 | 2355 ft | 148 kts | 84° |
| 2026-04-29 04:44 | -8.75401 | 115.02749 | 2157 ft | 147 kts | 88° |
| 2026-04-29 04:45 | -8.75356 | 115.03776 | 1946 ft | 147 kts | 89° |
| 2026-04-29 04:45 | -8.75320 | 115.04782 | 1797 ft | 138 kts | 90° |
| 2026-04-29 04:45 | -8.75284 | 115.05735 | 1759 ft | 135 kts | 89° |
| 2026-04-29 04:45 | -8.75248 | 115.06686 | 1735 ft | 135 kts | 89° |
| 2026-04-29 04:46 | -8.75209 | 115.07636 | 1601 ft | 135 kts | 89° |
| 2026-04-29 04:46 | -8.75176 | 115.08573 | 1439 ft | 136 kts | 89° |
| 2026-04-29 04:46 | -8.75144 | 115.09521 | 1261 ft | 134 kts | 91° |
| 2026-04-29 04:46 | -8.75105 | 115.10468 | 1095 ft | 134 kts | 89° |
| 2026-04-29 04:47 | -8.75064 | 115.11409 | 918 ft | 134 kts | 90° |
| 2026-04-29 04:47 | -8.75030 | 115.12351 | 747 ft | 134 kts | 91° |
| 2026-04-29 04:47 | -8.74991 | 115.13292 | 573 ft | 132 kts | 90° |
| 2026-04-29 04:47 | -8.74944 | 115.14228 | 376 ft | 135 kts | 89° |
| 2026-04-29 04:48 | -8.74908 | 115.15177 | 146 ft | 136 kts | 90° |
| 2026-04-29 04:48 | -8.74864 | 115.16122 | 34 ft | 127 kts | 89° |
| 2026-04-29 04:48 | -8.74839 | 115.16776 | 32 ft | 49 kts | 87° |
| 2026-04-29 04:48 | -8.74830 | 115.17075 | 33 ft | 32 kts | 86° |
| 2026-04-29 04:49 | -8.74823 | 115.17217 | 32 ft | 20 kts | 88° |
| 2026-04-29 04:49 | -8.74794 | 115.17304 | 33 ft | 13 kts | 32° |
| 2026-04-29 04:49 | -8.74730 | 115.17314 | 35 ft | 7 kts | 0° |
| 2026-04-29 04:49 | -8.74711 | 115.17314 | 36 ft | 4 kts | 0° |
| 2026-04-29 04:50 | -8.74673 | 115.17303 | 37 ft | 8 kts | 323° |
| 2026-04-29 04:50 | -8.74657 | 115.17268 | 37 ft | 10 kts | 272° |
| 2026-04-29 04:50 | -8.74658 | 115.17219 | 37 ft | 7 kts | 268° |
| 2026-04-29 04:50 | -8.74661 | 115.17161 | 37 ft | 9 kts | 267° |
| 2026-04-29 04:51 | -8.74664 | 115.17087 | 37 ft | 12 kts | 267° |
| 2026-04-29 04:51 | -8.74668 | 115.16999 | 37 ft | 7 kts | 267° |
| 2026-04-29 04:51 | -8.74667 | 115.16952 | 37 ft | 6 kts | 299° |
| 2026-04-29 04:51 | -8.74627 | 115.16938 | 38 ft | 6 kts | 359° |
| 2026-04-29 04:52 | -8.74581 | 115.16935 | 38 ft | 8 kts | 357° |
| 2026-04-29 04:52 | -8.74553 | 115.16934 | 38 ft | 3 kts | 358° |
| 2026-04-29 04:52 | -8.74546 | 115.16934 | 38 ft | 0 kts | 358° |